Time;durP1;ratioP1;P1;durP2;ratioP2;P2;SDS_P1;SDS_P2;PMS_P1;PMS_P2;Temp;Humidity;BMP_temperature;BMP_pressure;BME280_temperature;BME280_humidity;BME280_pressure;Samples;Min_cycle;Max_cycle;Signal;HPM_P1;HPM_P2
2023/08/21 00:04:08;;;;;;;;;;;22.00;99.90;;;;;;6702355;88;20082;-80
2023/08/21 00:14:09;;;;;;;;;;;21.90;99.90;;;;;;6706237;88;20072;-79
2023/08/21 00:34:12;;;;;;;;;;;21.80;99.90;;;;;;6726920;88;20078;-80
2023/08/21 00:44:13;;;;;;;;;;;21.70;99.90;;;;;;6714793;88;20735;-80
2023/08/21 00:54:13;;;;;;;;;;;21.40;99.90;;;;;;6713153;88;20063;-80
2023/08/21 01:04:14;;;;;;;;;;;21.20;99.90;;;;;;6713536;88;20087;-80
2023/08/21 01:14:26;;;;;;;;;;;21.10;99.90;;;;;;6718556;88;20062;-80
2023/08/21 01:24:26;;;;;;;;;;;21.00;99.90;;;;;;6722758;88;20122;-80
2023/08/21 01:34:28;;;;;;;;;;;20.80;99.90;;;;;;6719266;88;20067;-79
2023/08/21 01:44:29;;;;;;;;;;;20.90;99.90;;;;;;6719131;88;20112;-81
2023/08/21 01:54:29;;;;;;;;;;;21.00;99.90;;;;;;6720195;88;20802;-80
2023/08/21 02:04:29;;;;;;;;;;;21.00;99.90;;;;;;6722328;88;20063;-79
2023/08/21 02:14:30;;;;;;;;;;;21.10;99.90;;;;;;6721226;88;20064;-80
2023/08/21 02:24:30;;;;;;;;;;;20.90;99.90;;;;;;6714378;88;20080;-80
2023/08/21 02:34:31;;;;;;;;;;;21.00;99.90;;;;;;6712835;88;20517;-78
2023/08/21 02:44:31;;;;;;;;;;;20.90;99.90;;;;;;6719049;88;20188;-79
2023/08/21 02:54:32;;;;;;;;;;;20.90;99.90;;;;;;6716000;88;20079;-82
2023/08/21 03:04:32;;;;;;;;;;;20.80;99.90;;;;;;6721417;88;20052;-82
2023/08/21 03:14:33;;;;;;;;;;;20.70;99.90;;;;;;6724812;88;20094;-82
2023/08/21 03:24:33;;;;;;;;;;;20.70;99.90;;;;;;6713683;88;20056;-82
2023/08/21 03:34:34;;;;;;;;;;;20.70;99.90;;;;;;6720921;88;20122;-81
2023/08/21 03:44:34;;;;;;;;;;;20.60;99.90;;;;;;6724626;88;20199;-82
2023/08/21 03:54:35;;;;;;;;;;;20.50;99.90;;;;;;6724860;88;20079;-81
2023/08/21 04:04:35;;;;;;;;;;;20.40;99.90;;;;;;6719975;88;20072;-82
2023/08/21 04:14:36;;;;;;;;;;;20.40;99.90;;;;;;6715682;88;20079;-82
2023/08/21 04:24:36;;;;;;;;;;;20.30;99.90;;;;;;6724447;88;20064;-82
2023/08/21 04:34:37;;;;;;;;;;;19.90;99.90;;;;;;6721413;88;20048;-81
2023/08/21 04:44:40;;;;;;;;;;;19.80;99.90;;;;;;6719756;88;20059;-81
2023/08/21 04:54:41;;;;;;;;;;;19.70;99.90;;;;;;6725146;88;20123;-78
2023/08/21 05:04:41;;;;;;;;;;;19.90;99.90;;;;;;6713489;88;20075;-78
2023/08/21 05:14:42;;;;;;;;;;;20.00;99.90;;;;;;6711697;88;20642;-79
2023/08/21 05:24:42;;;;;;;;;;;20.20;99.90;;;;;;6710446;88;20058;-79
2023/08/21 05:34:43;;;;;;;;;;;20.40;99.90;;;;;;6713388;88;20054;-79
2023/08/21 05:44:43;;;;;;;;;;;20.50;99.90;;;;;;6727125;88;20485;-80
2023/08/21 05:54:44;;;;;;;;;;;21.00;99.90;;;;;;6725742;88;20120;-80
2023/08/21 06:04:45;;;;;;;;;;;21.40;99.90;;;;;;6722542;88;20086;-81
2023/08/21 06:14:45;;;;;;;;;;;21.80;99.90;;;;;;6722413;88;20040;-79
2023/08/21 06:24:46;;;;;;;;;;;22.00;99.90;;;;;;6708978;88;20690;-77
2023/08/21 06:34:46;;;;;;;;;;;22.30;99.90;;;;;;6713971;77;20043;-75
2023/08/21 06:44:47;;;;;;;;;;;22.60;99.90;;;;;;6686039;88;20152;-75
2023/08/21 06:54:47;;;;;;;;;;;22.70;99.90;;;;;;6680701;88;20112;-74
2023/08/21 07:04:48;;;;;;;;;;;22.90;99.90;;;;;;6679433;88;20103;-75
2023/08/21 07:14:48;;;;;;;;;;;23.50;99.90;;;;;;6682220;88;20063;-76
2023/08/21 07:24:49;;;;;;;;;;;24.00;99.90;;;;;;6677414;88;20571;-75
2023/08/21 07:34:54;;;;;;;;;;;24.40;99.90;;;;;;6680516;88;20142;-75
2023/08/21 07:44:54;;;;;;;;;;;25.40;99.90;;;;;;6682212;88;20634;-74
2023/08/21 07:54:54;;;;;;;;;;;26.00;99.90;;;;;;6681240;88;20074;-75
2023/08/21 08:04:55;;;;;;;;;;;26.50;99.90;;;;;;6677828;88;20973;-74
2023/08/21 08:14:55;;;;;;;;;;;27.30;99.90;;;;;;6677368;88;20100;-74
2023/08/21 08:24:56;;;;;;;;;;;27.40;99.90;;;;;;6677458;88;20076;-74
2023/08/21 08:34:56;;;;;;;;;;;28.30;99.90;;;;;;6672685;88;20089;-74
2023/08/21 08:45:00;;;;;;;;;;;28.40;99.90;;;;;;6681787;88;20084;-75
2023/08/21 08:55:00;;;;;;;;;;;28.90;99.90;;;;;;6680779;88;20055;-75
2023/08/21 09:05:01;;;;;;;;;;;29.40;99.90;;;;;;6679242;88;20068;-75
2023/08/21 09:15:06;;;;;;;;;;;30.40;99.90;;;;;;6694293;88;20166;-74
2023/08/21 09:25:07;;;;;;;;;;;30.50;99.90;;;;;;6679381;88;20078;-80
2023/08/21 09:35:13;;;;;;;;;;;31.20;99.90;;;;;;6690638;88;20519;-79
2023/08/21 09:45:13;;;;;;;;;;;32.20;99.90;;;;;;6689486;88;20088;-80
2023/08/21 09:55:14;;;;;;;;;;;32.30;99.90;;;;;;6695044;88;20233;-80
2023/08/21 10:05:18;;;;;;;;;;;32.40;99.90;;;;;;6691434;88;20096;-79
2023/08/21 10:15:19;;;;;;;;;;;33.10;99.90;;;;;;6692044;88;20110;-80
2023/08/21 10:25:22;;;;;;;;;;;33.20;99.90;;;;;;6691008;88;20084;-81
2023/08/21 10:35:31;;;;;;;;;;;33.00;99.90;;;;;;6694499;88;20267;-80
2023/08/21 10:45:32;;;;;;;;;;;33.50;99.90;;;;;;6712666;88;20077;-81
2023/08/21 10:55:32;;;;;;;;;;;34.20;99.90;;;;;;6694887;88;20501;-81
2023/08/21 11:05:33;;;;;;;;;;;35.30;98.10;;;;;;6688028;88;20207;-80
2023/08/21 11:15:34;;;;;;;;;;;35.60;98.60;;;;;;6683726;88;20061;-81
2023/08/21 11:25:38;;;;;;;;;;;35.40;97.80;;;;;;6690593;88;20093;-81
2023/08/21 11:35:39;;;;;;;;;;;35.60;97.30;;;;;;6679505;88;20060;-77
2023/08/21 11:45:40;;;;;;;;;;;36.00;96.50;;;;;;6676363;88;20100;-80
2023/08/21 11:55:40;;;;;;;;;;;35.50;96.50;;;;;;6682348;88;20069;-80
2023/08/21 12:05:44;;;;;;;;;;;35.00;96.20;;;;;;6686778;88;20059;-81
2023/08/21 12:15:44;;;;;;;;;;;35.10;96.10;;;;;;6692908;88;20056;-81
2023/08/21 12:25:45;;;;;;;;;;;35.20;96.40;;;;;;6687911;88;20069;-80
2023/08/21 12:35:45;;;;;;;;;;;35.20;96.50;;;;;;6688478;88;20091;-80
2023/08/21 12:45:46;;;;;;;;;;;35.40;95.80;;;;;;6687975;88;20261;-81
2023/08/21 12:55:46;;;;;;;;;;;35.00;96.10;;;;;;6699589;88;20469;-82
2023/08/21 13:05:47;;;;;;;;;;;34.90;95.90;;;;;;6690505;88;20292;-79
2023/08/21 13:15:47;;;;;;;;;;;34.00;96.10;;;;;;6685785;88;20150;-80
2023/08/21 13:25:48;;;;;;;;;;;34.30;95.80;;;;;;6698104;88;20250;-80
2023/08/21 13:35:49;;;;;;;;;;;34.50;95.70;;;;;;6692222;88;20170;-80
2023/08/21 13:45:49;;;;;;;;;;;35.50;94.40;;;;;;6687362;88;20487;-79
2023/08/21 13:55:50;;;;;;;;;;;34.90;94.60;;;;;;6681502;88;20053;-79
2023/08/21 14:05:50;;;;;;;;;;;35.50;94.40;;;;;;6687546;88;20110;-79
2023/08/21 14:15:51;;;;;;;;;;;35.70;94.30;;;;;;6686537;88;20128;-79
2023/08/21 14:25:51;;;;;;;;;;;34.90;93.90;;;;;;6685107;88;20053;-79
2023/08/21 14:35:52;;;;;;;;;;;34.00;94.50;;;;;;6687645;88;20060;-80
2023/08/21 14:45:52;;;;;;;;;;;35.00;93.50;;;;;;6686274;88;20505;-79
2023/08/21 14:55:53;;;;;;;;;;;35.00;93.40;;;;;;6683987;88;20146;-79
2023/08/21 15:05:53;;;;;;;;;;;34.50;93.30;;;;;;6694234;88;20100;-79
2023/08/21 15:15:54;;;;;;;;;;;34.30;93.80;;;;;;6689333;88;20083;-79
2023/08/21 15:25:54;;;;;;;;;;;33.50;93.70;;;;;;6689663;88;20068;-80
2023/08/21 15:35:54;;;;;;;;;;;33.30;93.90;;;;;;6686630;88;20077;-80
2023/08/21 15:45:55;;;;;;;;;;;32.50;94.70;;;;;;6685410;88;20208;-80
2023/08/21 15:55:56;;;;;;;;;;;32.20;94.40;;;;;;6687289;88;20098;-79
2023/08/21 16:05:56;;;;;;;;;;;32.40;94.20;;;;;;6685095;88;20149;-81
2023/08/21 16:15:57;;;;;;;;;;;32.50;94.10;;;;;;6688096;88;20064;-81
2023/08/21 16:25:57;;;;;;;;;;;32.00;94.30;;;;;;6694079;88;20053;-82
2023/08/21 16:35:58;;;;;;;;;;;31.90;94.80;;;;;;6711610;88;20555;-81
2023/08/21 16:45:58;;;;;;;;;;;31.40;94.70;;;;;;6708671;88;20110;-81
2023/08/21 16:55:59;;;;;;;;;;;31.30;94.40;;;;;;6705125;88;20036;-82
2023/08/21 17:05:59;;;;;;;;;;;31.30;93.90;;;;;;6715439;88;20068;-81
2023/08/21 17:16:00;;;;;;;;;;;30.50;94.60;;;;;;6720111;88;20069;-78
2023/08/21 17:26:00;;;;;;;;;;;30.00;94.60;;;;;;6708575;88;20206;-79
2023/08/21 17:36:01;;;;;;;;;;;30.00;94.80;;;;;;6696279;88;20516;-80
2023/08/21 17:46:01;;;;;;;;;;;29.50;96.00;;;;;;6695507;88;20528;-78
2023/08/21 17:56:02;;;;;;;;;;;28.70;96.60;;;;;;6695639;88;20559;-80
2023/08/21 18:06:05;;;;;;;;;;;28.20;97.50;;;;;;6709354;88;20040;-82
2023/08/21 18:16:05;;;;;;;;;;;28.00;97.90;;;;;;6699772;88;20103;-78
2023/08/21 18:26:06;;;;;;;;;;;27.40;97.80;;;;;;6687048;88;20236;-81
2023/08/21 18:36:06;;;;;;;;;;;27.10;98.40;;;;;;6682911;88;20080;-80
2023/08/21 18:46:07;;;;;;;;;;;26.80;99.10;;;;;;6687394;88;20080;-79
2023/08/21 18:56:07;;;;;;;;;;;26.60;99.90;;;;;;6702212;77;20245;-77
2023/08/21 19:06:08;;;;;;;;;;;26.30;99.90;;;;;;6683396;88;20064;-76
2023/08/21 19:16:08;;;;;;;;;;;26.00;99.90;;;;;;6682348;88;20707;-77
2023/08/21 19:26:08;;;;;;;;;;;25.80;99.90;;;;;;6685508;88;20209;-76
2023/08/21 19:36:13;;;;;;;;;;;25.50;99.90;;;;;;6685962;88;20675;-76
2023/08/21 19:46:13;;;;;;;;;;;25.20;99.90;;;;;;6685245;88;20600;-75
2023/08/21 19:56:14;;;;;;;;;;;24.90;99.90;;;;;;6683323;88;20060;-77
2023/08/21 20:06:17;;;;;;;;;;;24.60;99.90;;;;;;6681925;88;20118;-77
2023/08/21 20:16:18;;;;;;;;;;;24.40;99.90;;;;;;6684589;88;20190;-75
2023/08/21 20:26:19;;;;;;;;;;;24.20;99.90;;;;;;6684790;88;20110;-76
2023/08/21 20:36:19;;;;;;;;;;;24.10;99.90;;;;;;6682258;88;20100;-78
2023/08/21 20:46:20;;;;;;;;;;;23.90;99.90;;;;;;6681668;88;20640;-76
2023/08/21 20:56:20;;;;;;;;;;;23.70;99.90;;;;;;6680990;88;20102;-78
2023/08/21 21:06:21;;;;;;;;;;;23.50;99.90;;;;;;6683930;88;20043;-75
2023/08/21 21:16:21;;;;;;;;;;;23.30;99.90;;;;;;6686210;88;20066;-77
2023/08/21 21:26:22;;;;;;;;;;;23.20;99.90;;;;;;6684506;88;20065;-78
2023/08/21 21:36:22;;;;;;;;;;;23.10;99.90;;;;;;6680357;88;20158;-77
2023/08/21 21:46:24;;;;;;;;;;;23.00;99.90;;;;;;6685151;88;20089;-77
2023/08/21 21:56:24;;;;;;;;;;;22.90;99.90;;;;;;6683407;88;20649;-78
2023/08/21 22:06:25;;;;;;;;;;;22.80;99.90;;;;;;6680809;88;20116;-77
2023/08/21 22:16:26;;;;;;;;;;;22.70;99.90;;;;;;6684244;88;20081;-77
2023/08/21 22:26:26;;;;;;;;;;;22.60;99.90;;;;;;6682735;88;20055;-76
2023/08/21 22:36:27;;;;;;;;;;;22.50;99.90;;;;;;6689066;88;20061;-77
2023/08/21 22:46:27;;;;;;;;;;;22.30;99.90;;;;;;6698071;88;20061;-78
2023/08/21 22:56:29;;;;;;;;;;;22.20;99.90;;;;;;6683376;88;20240;-77
2023/08/21 23:06:29;;;;;;;;;;;22.00;99.90;;;;;;6686845;88;20197;-78
2023/08/21 23:16:30;;;;;;;;;;;21.90;99.90;;;;;;6681908;88;21000;-77
2023/08/21 23:26:30;;;;;;;;;;;21.80;99.90;;;;;;6685720;88;20049;-76
2023/08/21 23:36:31;;;;;;;;;;;21.70;99.90;;;;;;6680428;88;22438;-77
2023/08/21 23:46:31;;;;;;;;;;;21.50;99.90;;;;;;6689895;88;20072;-77
2023/08/21 23:56:32;;;;;;;;;;;21.50;99.90;;;;;;6689354;88;20192;-77
